This is the latest recevied weather packets stored in our database for station/object SV3CQY. If no packets are shown the sender has not sent any weather packets the latest 10 day(s).
| Time | Temp. | Humidity | Pressure | Rain* | Wind** | Luminosity | Snow |
|---|---|---|---|---|---|---|---|
| 1777731910 | 14.44° C | 45% | 1017.3 hPa | 0 mm | - | - | - |
| 1777731012 | 14.44° C | 48% | 1017.4 hPa | 0 mm | - | - | - |
| 1777730438 | 14.44° C | 47% | 1017.4 hPa | 0 mm | - | - | - |
| 1777728911 | 15.56° C | 44% | 1017.2 hPa | 0 mm | - | - | - |
| 1777728629 | 15.56° C | 45% | 1017.2 hPa | 0 mm | - | - | - |
| 1777728310 | 15° C | 45% | 1017.3 hPa | 0 mm | - | - | - |
| 1777724413 | 15.56° C | 45% | 1017.4 hPa | 0 mm | - | - | - |
| 1777723229 | 15° C | 47% | 1017.5 hPa | 0 mm | - | - | - |
| 1777722330 | 14.44° C | 48% | 1017.6 hPa | 0 mm | - | - | - |
| 1777720811 | 15° C | 46% | 1017.6 hPa | 0 mm | - | - | - |
| 1777720211 | 15° C | 48% | 1017.6 hPa | 0 mm | - | - | - |
| 1777719012 | 15° C | 50% | 1017.6 hPa | 0 mm | - | - | - |
| 1777718738 | 15° C | 51% | 1017.8 hPa | 0 mm | - | - | - |
| 1777718109 | 15° C | 51% | 1017.8 hPa | 0 mm | - | - | - |
| 1777717826 | 14.44° C | 52% | 1017.9 hPa | 0 mm | - | - | - |
| 1777716310 | 15° C | 49% | 1018 hPa | 0 mm | - | - | - |
| 1777713613 | 13.89° C | 53% | 1018.3 hPa | 0 mm | - | - | - |
| 1777712711 | 14.44° C | 54% | 1018.4 hPa | 0 mm | - | - | - |
| 1777712428 | 13.89° C | 54% | 1018.4 hPa | 0 mm | - | - | - |
| 1777712113 | 13.89° C | 54% | 1018.4 hPa | 0 mm | - | - | - |
| 1777711528 | 13.33° C | 56% | 1018.6 hPa | 0 mm | - | - | - |
| 1777710911 | 13.89° C | 55% | 1018.5 hPa | 0 mm | - | - | - |
| 1777710010 | 13.33° C | 55% | 1018.5 hPa | 0 mm | - | - | - |
| 1777706414 | 13.33° C | 56% | 1018.2 hPa | 0 mm | - | - | - |
| 1777706126 | 13.33° C | 55% | 1018.1 hPa | 0 mm | - | - | - |
* Rain latest hour (hover to see other rain measurements)
** Current wind speed in m/s (hover to see current wind gust speed)